bureau de piste

Plus d’information sur les terrains : LFMD et VALBERG

METAR LFMD 231830Z AUTO 34005KT 310V050 9999 -RA BKN032/// OVC043/// ///TCU 06/04 Q0990 BECMG BKN070

TAF LFMD 231400Z 2315/2415 09012KT 9999 SCT033TCU BKN150   PROB40   TEMPO 2315/2317 VRB15G25KT 7000 -TSRA SCT040CB BKN090   BECMG 2317/2319 36012KT BKN070   BECMG 2402/2404 CAVOK   BECMG 2411/2413 26012KT

INFORMATION ADDS - 1852 UTC 23 Jan 2019

Les commentaires sont clos.